KBGR/BGR METAR and TAF weather

Enter ICAO airport designator
Station Type Date Time Source
KBGR METAR 2018/01/22 11:53 UTC NOAA

KBGR 221153Z 03007KT 5SM -SN FEW015 OVC036 M08/M12 A3038 RMK AO2 SLP291 4/003 P0000 60000 T10781117 11022 21078 53026


Station Type Date Time Source
KBGR Decoded METAR 2018/01/22 11:53 UTC NOAA

BANGOR INT'L AIRPORT, ME, United States (KBGR) 44-48N 068-49W 57M
Jan 22, 2018 - 06:53 AM EST / 2018.01.22 1153 UTC
Wind: from the NNE (030 degrees) at 8 MPH (7 KT):0
Visibility: 5 mile(s):0
Sky conditions: overcast
Weather: light snow; 3 inches of snow on ground
Precipitation last hour: A trace
Temperature: 18.0 F (-7.8 C)
Windchill: 8 F (-13 C):1
Dew Point: 10.9 F (-11.7 C)
Relative Humidity: 73%
Pressure (altimeter): 30.38 in. Hg (1028 hPa)
Pressure tendency: 0.08 inches (2.6 hPa) higher than three hours ago
ob: KBGR 221153Z 03007KT 5SM -SN FEW015 OVC036 M08/M12 A3038 RMK AO2 SLP291 4/003 P0000 60000 T10781117 11022 21078 53026
cycle: 12

Station Type Date Time Source
KBGR TAF 2018/01/22 12:22 UTC NOAA

TAF KBGR 221120Z 2212/2312 03009KT 3SM -SN BR OVC040
FM222200 06006KT 2SM -SN OVC015
FM230400 07006KT 1SM -SN OVC010
FM230800 08006KT 1SM -FZRASNPL OVC008
FM231100 08005KT 1SM -FZRASN OVC008


Example: see airport list